Time;durP1;ratioP1;P1;durP2;ratioP2;P2;SDS_P1;SDS_P2;PMS_P1;PMS_P2;Temp;Humidity;BMP_temperature;BMP_pressure;BME280_temperature;BME280_humidity;BME280_pressure;Samples;Min_cycle;Max_cycle;Signal;HPM_P1;HPM_P2
2023/05/25 00:01:33;;;;;;;17.02;8.70;;;9.20;95.30;;;;;;5045240;28;20120;-73
2023/05/25 00:03:59;;;;;;;14.25;8.43;;;9.10;95.30;;;;;;5052560;28;20039;-73
2023/05/25 00:06:24;;;;;;;22.98;8.70;;;9.10;95.40;;;;;;5060495;28;20059;-73
2023/05/25 00:08:54;;;;;;;25.17;9.32;;;9.00;95.50;;;;;;5051062;28;20056;-73
2023/05/25 00:11:22;;;;;;;19.67;9.05;;;8.90;95.40;;;;;;5051912;28;20409;-73
2023/05/25 00:13:48;;;;;;;20.00;8.50;;;8.90;95.70;;;;;;5047186;28;20477;-73
2023/05/25 00:16:13;;;;;;;19.58;9.18;;;8.90;95.80;;;;;;5045165;28;20043;-73
2023/05/25 00:18:39;;;;;;;22.40;10.48;;;8.90;95.80;;;;;;5048008;28;20465;-73
2023/05/25 00:21:06;;;;;;;19.27;9.40;;;8.90;95.90;;;;;;5060336;28;20428;-73
2023/05/25 00:23:31;;;;;;;21.05;9.95;;;8.90;96.00;;;;;;5046006;28;20025;-73
2023/05/25 00:25:57;;;;;;;22.83;10.20;;;8.90;96.00;;;;;;5045807;28;20124;-73
2023/05/25 00:28:23;;;;;;;20.33;11.50;;;8.90;96.00;;;;;;5044850;28;20056;-73
2023/05/25 00:30:48;;;;;;;24.23;10.82;;;9.00;96.00;;;;;;5040213;28;20032;-73
2023/05/25 00:33:14;;;;;;;20.95;10.45;;;9.00;96.10;;;;;;5045211;28;20021;-73
2023/05/25 00:35:41;;;;;;;23.15;11.82;;;9.10;96.10;;;;;;5049652;28;20031;-73
2023/05/25 00:38:15;;;;;;;19.45;10.70;;;9.10;96.00;;;;;;5043232;28;20049;-73
2023/05/25 00:40:41;;;;;;;19.08;9.73;;;9.10;96.00;;;;;;5041122;28;20025;-73
2023/05/25 00:43:10;;;;;;;15.75;9.95;;;9.10;95.90;;;;;;5046017;28;20024;-73
2023/05/25 00:45:36;;;;;;;21.70;10.23;;;9.10;95.90;;;;;;5045326;28;20057;-73
2023/05/25 00:48:03;;;;;;;28.65;10.65;;;9.20;95.90;;;;;;5053801;28;20059;-73
2023/05/25 00:50:51;;;;;;;23.65;10.00;;;9.20;96.00;;;;;;5047233;28;20028;-73
2023/05/25 00:53:17;;;;;;;24.75;9.80;;;9.30;96.00;;;;;;5045454;28;20354;-73
2023/05/25 00:56:12;;;;;;;21.55;10.27;;;9.30;96.00;;;;;;5078116;28;20031;-73
2023/05/25 00:58:40;;;;;;;19.45;9.05;;;9.30;96.00;;;;;;5042080;28;20049;-73
2023/05/25 01:01:10;;;;;;;21.30;10.00;;;9.30;95.90;;;;;;5046383;28;20033;-73
2023/05/25 01:03:38;;;;;;;25.65;9.88;;;9.30;96.00;;;;;;5050509;28;20029;-73
2023/05/25 01:06:12;;;;;;;29.58;9.23;;;9.30;96.10;;;;;;5049054;28;20028;-73
2023/05/25 01:08:40;;;;;;;21.35;9.57;;;9.30;96.20;;;;;;5053415;28;20043;-73
2023/05/25 01:11:10;;;;;;;23.27;9.73;;;9.40;96.20;;;;;;5052716;28;20029;-73
2023/05/25 01:13:37;;;;;;;18.63;9.65;;;9.30;96.10;;;;;;5049775;28;20083;-73
2023/05/25 01:16:05;;;;;;;27.83;11.25;;;9.30;96.20;;;;;;5049125;28;20028;-73
2023/05/25 01:18:32;;;;;;;21.08;9.15;;;9.40;96.20;;;;;;5046552;28;20087;-73
2023/05/25 01:21:11;;;;;;;19.48;8.57;;;9.40;96.30;;;;;;5036610;28;20025;-73
2023/05/25 01:23:42;;;;;;;29.20;10.35;;;9.50;96.20;;;;;;5047125;28;20059;-73
2023/05/25 01:26:13;;;;;;;26.73;9.55;;;9.40;96.20;;;;;;5046887;28;20095;-73
2023/05/25 01:28:45;;;;;;;20.13;9.13;;;9.30;96.20;;;;;;5039268;28;20033;-73
2023/05/25 01:31:13;;;;;;;25.63;9.40;;;9.30;96.20;;;;;;5048790;28;20020;-73
2023/05/25 01:33:40;;;;;;;21.38;8.70;;;9.20;96.30;;;;;;5043544;28;20025;-73
2023/05/25 01:36:06;;;;;;;16.48;8.77;;;9.10;96.40;;;;;;5047690;28;20386;-73
2023/05/25 01:38:32;;;;;;;24.08;9.93;;;9.00;96.60;;;;;;5046749;28;20043;-73
2023/05/25 01:40:57;;;;;;;23.85;10.32;;;8.90;96.80;;;;;;5044939;28;20026;-73
2023/05/25 01:43:23;;;;;;;23.27;9.45;;;8.70;96.80;;;;;;5047057;28;20029;-73
2023/05/25 01:45:53;;;;;;;24.98;10.57;;;8.60;97.00;;;;;;5047675;28;20078;-73
2023/05/25 01:48:29;;;;;;;24.67;9.65;;;8.50;97.00;;;;;;5046473;28;20449;-73
2023/05/25 01:51:06;;;;;;;18.48;9.50;;;8.30;97.10;;;;;;5043417;28;20037;-73
2023/05/25 01:53:44;;;;;;;20.83;9.80;;;8.30;97.20;;;;;;5042752;28;20021;-73
2023/05/25 01:56:12;;;;;;;25.35;9.93;;;8.10;97.20;;;;;;5043515;28;20548;-73
2023/05/25 01:58:41;;;;;;;23.15;10.38;;;8.10;97.40;;;;;;5072401;28;20052;-73
2023/05/25 02:01:13;;;;;;;24.63;9.55;;;8.00;97.40;;;;;;5057742;28;20036;-73
2023/05/25 02:03:40;;;;;;;21.92;9.90;;;7.90;97.50;;;;;;5055885;28;20532;-73
2023/05/25 02:06:06;;;;;;;24.77;10.23;;;7.80;97.60;;;;;;5058747;28;20732;-73
2023/05/25 02:08:32;;;;;;;25.33;11.13;;;7.80;97.70;;;;;;5054069;28;20025;-73
2023/05/25 02:10:57;;;;;;;27.15;10.73;;;7.80;98.00;;;;;;5041140;28;20450;-73
2023/05/25 02:13:23;;;;;;;31.17;11.25;;;7.80;98.10;;;;;;5045321;28;20029;-73
2023/05/25 02:15:49;;;;;;;27.27;12.30;;;7.80;98.20;;;;;;5048451;28;20030;-73
2023/05/25 02:18:16;;;;;;;23.33;10.82;;;7.70;98.30;;;;;;5050171;28;20068;-73
2023/05/25 02:20:42;;;;;;;33.67;11.50;;;7.60;98.20;;;;;;5041960;28;20362;-73
2023/05/25 02:23:08;;;;;;;29.92;12.02;;;7.60;98.40;;;;;;5037289;28;20020;-73
2023/05/25 02:25:33;;;;;;;28.23;10.88;;;7.60;98.60;;;;;;5048474;28;20052;-73
2023/05/25 02:27:59;;;;;;;31.50;12.68;;;7.50;98.60;;;;;;5043965;28;20025;-73
2023/05/25 02:30:25;;;;;;;38.90;12.23;;;7.60;98.70;;;;;;5047417;28;20025;-73
2023/05/25 02:32:50;;;;;;;38.50;13.23;;;7.50;98.70;;;;;;5049099;28;20480;-73
2023/05/25 02:35:16;;;;;;;38.28;13.50;;;7.60;98.90;;;;;;5057136;28;20048;-73
2023/05/25 02:37:41;;;;;;;37.20;13.60;;;7.70;99.00;;;;;;5045687;28;20038;-73
2023/05/25 02:40:09;;;;;;;37.95;13.30;;;7.80;99.00;;;;;;5044206;28;20044;-73
2023/05/25 02:42:35;;;;;;;40.67;13.40;;;7.90;99.10;;;;;;5059655;28;20029;-73
2023/05/25 02:45:00;;;;;;;38.22;14.45;;;8.00;99.10;;;;;;5052476;28;20483;-73
2023/05/25 02:47:26;;;;;;;37.13;14.73;;;8.10;99.10;;;;;;5063499;28;20538;-73
2023/05/25 02:49:51;;;;;;;35.25;15.35;;;8.10;99.10;;;;;;5052009;28;20033;-73
2023/05/25 02:52:16;;;;;;;36.70;15.52;;;8.10;99.10;;;;;;5046833;28;20487;-73
2023/05/25 02:54:42;;;;;;;33.10;15.55;;;8.20;99.10;;;;;;5057172;28;20070;-73
2023/05/25 02:57:09;;;;;;;36.50;16.05;;;8.30;99.10;;;;;;5053261;28;20450;-73
2023/05/25 02:59:34;;;;;;;39.92;16.25;;;8.40;99.00;;;;;;5073604;28;20035;-73
2023/05/25 03:01:59;;;;;;;34.42;15.18;;;8.40;99.00;;;;;;5048008;28;20029;-73
2023/05/25 03:04:25;;;;;;;46.80;17.10;;;8.50;98.90;;;;;;5042379;28;20078;-73
2023/05/25 03:06:51;;;;;;;33.03;16.02;;;8.50;98.90;;;;;;5049444;28;20116;-73
2023/05/25 03:09:16;;;;;;;46.97;16.80;;;8.50;98.90;;;;;;5049338;28;20364;-73
2023/05/25 03:11:42;;;;;;;46.15;17.13;;;8.50;98.80;;;;;;5047979;28;20021;-73
2023/05/25 03:14:08;;;;;;;40.83;17.48;;;8.60;98.80;;;;;;5047988;28;20037;-73
2023/05/25 03:16:35;;;;;;;40.13;17.08;;;8.70;98.90;;;;;;5049916;28;20039;-73
2023/05/25 03:19:01;;;;;;;45.17;17.65;;;8.80;98.90;;;;;;5043436;28;20068;-73
2023/05/25 03:21:27;;;;;;;44.15;18.00;;;8.80;98.70;;;;;;5043992;28;20045;-73
2023/05/25 03:23:52;;;;;;;35.92;17.13;;;8.90;98.60;;;;;;5045340;28;20075;-73
2023/05/25 03:26:18;;;;;;;41.45;17.38;;;8.90;98.50;;;;;;5046883;28;20068;-73
2023/05/25 03:28:43;;;;;;;40.03;16.25;;;8.90;98.40;;;;;;5052767;28;20029;-73
2023/05/25 03:31:10;;;;;;;37.72;17.10;;;8.90;98.40;;;;;;5048454;28;20039;-73
2023/05/25 03:33:36;;;;;;;35.05;15.15;;;8.90;98.40;;;;;;5054126;28;20025;-73
2023/05/25 03:36:06;;;;;;;41.00;17.30;;;9.00;98.30;;;;;;5047765;28;20083;-73
2023/05/25 03:38:32;;;;;;;43.67;17.13;;;8.90;98.30;;;;;;5048689;28;20087;-73
2023/05/25 03:40:57;;;;;;;42.63;16.27;;;9.00;98.40;;;;;;5049455;28;20033;-73
2023/05/25 03:43:23;;;;;;;33.78;16.02;;;9.00;98.30;;;;;;5052365;28;20091;-73
2023/05/25 03:45:48;;;;;;;43.53;17.90;;;9.00;98.30;;;;;;5055678;28;20020;-73
2023/05/25 03:48:13;;;;;;;36.25;17.08;;;9.00;98.40;;;;;;5052147;28;20056;-73
2023/05/25 03:50:39;;;;;;;40.88;16.83;;;9.10;98.50;;;;;;5044657;28;20060;-73
2023/05/25 03:53:05;;;;;;;42.30;16.70;;;9.10;98.30;;;;;;5050456;28;20361;-73
2023/05/25 03:55:31;;;;;;;39.88;16.02;;;9.10;98.30;;;;;;5050697;28;20457;-73
2023/05/25 03:57:56;;;;;;;38.97;15.88;;;9.10;98.30;;;;;;5054234;28;20029;-73
2023/05/25 04:00:22;;;;;;;41.58;16.30;;;9.10;98.30;;;;;;5048301;28;20060;-73
2023/05/25 04:02:47;;;;;;;33.22;15.65;;;9.10;98.30;;;;;;5046378;28;20025;-73
2023/05/25 04:05:13;;;;;;;41.78;17.35;;;9.20;98.30;;;;;;5043186;28;20349;-73
2023/05/25 04:07:39;;;;;;;43.10;17.63;;;9.30;98.20;;;;;;5044800;28;20519;-73
2023/05/25 04:10:06;;;;;;;43.85;17.60;;;9.20;98.20;;;;;;5042353;28;20450;-73
2023/05/25 04:12:32;;;;;;;40.20;16.83;;;9.30;98.40;;;;;;5045366;28;20123;-73
2023/05/25 04:14:58;;;;;;;37.38;17.83;;;9.30;98.40;;;;;;5050296;28;20068;-73
2023/05/25 04:17:24;;;;;;;35.00;16.88;;;9.40;98.40;;;;;;5045164;28;20060;-73
2023/05/25 04:19:50;;;;;;;44.78;17.95;;;9.40;98.30;;;;;;5043250;28;20466;-73
2023/05/25 04:22:16;;;;;;;32.08;17.48;;;9.50;98.20;;;;;;5043564;28;20044;-73
2023/05/25 04:24:42;;;;;;;40.50;18.75;;;9.50;98.20;;;;;;5040768;28;20101;-73
2023/05/25 04:27:07;;;;;;;43.70;20.27;;;9.50;98.00;;;;;;5046015;28;20045;-73
2023/05/25 04:29:33;;;;;;;36.83;20.05;;;9.50;98.10;;;;;;5047592;28;20055;-71
2023/05/25 04:31:58;;;;;;;41.70;20.02;;;9.60;98.00;;;;;;5047112;28;20048;-73
2023/05/25 04:34:24;;;;;;;36.28;21.02;;;9.60;97.80;;;;;;5046965;28;20373;-73
2023/05/25 04:36:49;;;;;;;41.53;18.83;;;9.60;97.80;;;;;;5046816;28;20035;-73
2023/05/25 04:39:15;;;;;;;31.50;18.58;;;9.60;97.70;;;;;;5044843;28;20037;-73
2023/05/25 04:41:42;;;;;;;35.03;18.35;;;9.60;97.50;;;;;;5037754;28;20490;-73
2023/05/25 04:44:08;;;;;;;32.40;17.75;;;9.70;97.30;;;;;;5039354;28;20097;-73
2023/05/25 04:46:37;;;;;;;35.28;18.40;;;9.70;97.20;;;;;;5056797;28;20050;-73
2023/05/25 04:49:04;;;;;;;35.03;18.48;;;9.80;97.20;;;;;;5044563;28;20022;-73
2023/05/25 04:51:31;;;;;;;31.95;17.98;;;9.80;97.00;;;;;;5042262;28;20061;-73
2023/05/25 04:53:56;;;;;;;30.23;17.75;;;10.00;96.90;;;;;;5044948;28;20033;-73
2023/05/25 04:56:24;;;;;;;33.03;16.23;;;10.00;96.80;;;;;;5041276;28;20418;-73
2023/05/25 04:58:50;;;;;;;23.55;14.68;;;10.10;96.70;;;;;;5046493;28;20080;-73
2023/05/25 05:01:16;;;;;;;26.27;14.27;;;10.10;96.50;;;;;;5038733;28;20108;-72
2023/05/25 05:03:41;;;;;;;21.75;13.45;;;10.10;96.40;;;;;;5047474;28;20104;-73
2023/05/25 05:06:07;;;;;;;22.48;11.82;;;10.10;96.40;;;;;;5052366;28;20028;-73
2023/05/25 05:08:32;;;;;;;24.10;10.98;;;10.20;96.30;;;;;;5047588;28;20021;-73
2023/05/25 05:10:58;;;;;;;18.42;9.98;;;10.20;96.10;;;;;;5043920;28;20042;-73
2023/05/25 05:13:23;;;;;;;14.68;7.82;;;10.30;96.00;;;;;;5048560;28;20090;-73
2023/05/25 05:15:49;;;;;;;15.35;7.80;;;10.40;95.40;;;;;;5042220;28;20108;-74
2023/05/25 05:18:14;;;;;;;12.35;6.35;;;10.50;95.00;;;;;;5047194;28;20048;-74
2023/05/25 05:20:40;;;;;;;20.45;7.32;;;10.50;94.50;;;;;;5039296;28;20358;-75
2023/05/25 05:23:05;;;;;;;15.68;6.28;;;10.60;94.30;;;;;;5044029;28;20454;-74
2023/05/25 05:25:31;;;;;;;13.23;6.55;;;10.70;94.40;;;;;;5041458;28;20049;-74
2023/05/25 05:27:56;;;;;;;13.27;5.95;;;11.00;94.30;;;;;;5051569;28;20090;-74
2023/05/25 05:30:22;;;;;;;13.20;5.78;;;11.00;93.90;;;;;;5043745;28;20398;-74
2023/05/25 05:32:47;;;;;;;12.63;5.28;;;11.10;93.30;;;;;;5047921;28;20032;-74
2023/05/25 05:35:13;;;;;;;16.70;5.63;;;11.20;92.70;;;;;;5039967;28;20053;-74
2023/05/25 05:37:38;;;;;;;13.93;5.50;;;11.20;92.70;;;;;;5039512;28;20067;-74
2023/05/25 05:40:05;;;;;;;16.52;5.00;;;11.40;93.10;;;;;;5036644;28;20108;-74
2023/05/25 05:42:31;;;;;;;16.83;5.10;;;11.50;92.20;;;;;;5050310;28;20032;-74
2023/05/25 05:44:56;;;;;;;13.73;4.55;;;11.40;91.40;;;;;;5043993;28;20033;-73
2023/05/25 05:47:21;;;;;;;12.38;4.63;;;11.30;91.20;;;;;;5047211;28;20055;-74
2023/05/25 05:49:47;;;;;;;15.38;4.10;;;11.40;92.10;;;;;;5036528;28;20155;-74
2023/05/25 05:52:13;;;;;;;12.55;4.53;;;11.40;91.70;;;;;;5058604;28;20024;-74
2023/05/25 05:54:38;;;;;;;13.82;4.28;;;11.60;91.80;;;;;;5066281;28;20054;-74
2023/05/25 05:57:05;;;;;;;14.82;4.40;;;11.30;90.70;;;;;;5048369;28;20059;-74
2023/05/25 05:59:30;;;;;;;11.93;3.28;;;11.50;90.90;;;;;;5050907;28;20031;-74
2023/05/25 06:01:56;;;;;;;10.98;3.28;;;11.30;90.00;;;;;;5049641;28;20111;-74
2023/05/25 06:04:24;;;;;;;15.15;3.55;;;11.30;90.10;;;;;;5047593;28;20083;-74
2023/05/25 06:06:49;;;;;;;11.18;3.75;;;11.30;90.50;;;;;;5047070;28;20013;-74
2023/05/25 06:09:15;;;;;;;15.00;4.10;;;11.40;90.60;;;;;;5049736;28;20037;-74
2023/05/25 06:11:40;;;;;;;11.15;3.65;;;11.50;90.50;;;;;;5041532;28;20080;-74
2023/05/25 06:14:06;;;;;;;11.13;3.75;;;11.50;90.30;;;;;;5042737;28;20350;-74
2023/05/25 06:16:32;;;;;;;11.60;3.78;;;11.60;90.80;;;;;;5051188;28;20083;-74
2023/05/25 06:18:57;;;;;;;18.45;3.67;;;11.60;90.10;;;;;;5052412;28;20076;-74
2023/05/25 06:21:23;;;;;;;10.63;3.42;;;11.60;89.60;;;;;;5040984;28;20032;-73
2023/05/25 06:23:48;;;;;;;13.48;3.80;;;11.60;89.10;;;;;;5046202;28;20458;-74
2023/05/25 06:26:14;;;;;;;12.02;3.53;;;11.70;88.90;;;;;;5037923;28;20065;-74
2023/05/25 06:28:40;;;;;;;15.27;3.88;;;11.90;89.00;;;;;;5062034;28;20029;-74
2023/05/25 06:31:05;;;;;;;15.27;3.92;;;11.80;89.20;;;;;;5052682;28;20032;-74
2023/05/25 06:33:31;;;;;;;14.38;3.22;;;11.80;88.50;;;;;;5044559;28;20025;-74
2023/05/25 06:35:59;;;;;;;17.27;3.85;;;11.90;88.90;;;;;;5052311;28;20047;-74
2023/05/25 06:38:27;;;;;;;15.07;3.85;;;11.80;87.30;;;;;;5045946;28;20453;-74
2023/05/25 06:40:53;;;;;;;13.38;3.60;;;12.00;87.90;;;;;;5049699;28;20029;-75
2023/05/25 06:43:19;;;;;;;17.52;3.83;;;12.10;88.20;;;;;;5051116;28;20104;-74
2023/05/25 06:45:45;;;;;;;14.48;3.80;;;12.10;86.50;;;;;;5038278;28;20025;-74
2023/05/25 06:48:10;;;;;;;17.63;4.07;;;12.30;87.60;;;;;;5051308;28;20373;-74
2023/05/25 06:50:35;;;;;;;15.52;3.83;;;12.40;86.50;;;;;;5045647;28;20048;-74
2023/05/25 06:53:01;;;;;;;18.40;3.90;;;12.60;84.50;;;;;;5045178;28;20024;-74
2023/05/25 06:55:27;;;;;;;15.20;4.20;;;12.90;86.00;;;;;;5053196;28;20467;-74
2023/05/25 06:57:52;;;;;;;21.15;4.30;;;13.50;84.60;;;;;;5042692;28;20025;-74
2023/05/25 07:00:18;;;;;;;16.77;3.80;;;13.80;82.00;;;;;;5044923;28;20075;-74
2023/05/25 07:02:44;;;;;;;14.52;3.85;;;13.80;80.30;;;;;;5049529;28;20052;-74
2023/05/25 07:05:09;;;;;;;16.25;3.92;;;13.90;81.10;;;;;;5050321;28;20063;-74
2023/05/25 07:07:35;;;;;;;13.43;3.72;;;13.60;81.80;;;;;;5047760;28;20793;-74
2023/05/25 07:10:03;;;;;;;11.82;3.78;;;13.20;83.40;;;;;;5036627;28;20025;-74
2023/05/25 07:12:28;;;;;;;16.42;4.10;;;12.90;83.80;;;;;;5046545;28;20024;-74
2023/05/25 07:14:54;;;;;;;14.07;4.25;;;12.90;84.30;;;;;;5047686;28;20465;-74
2023/05/25 07:17:20;;;;;;;11.75;4.05;;;12.90;84.40;;;;;;5048771;28;20021;-74
2023/05/25 07:19:47;;;;;;;14.70;3.58;;;13.00;84.40;;;;;;5064083;28;20148;-74
2023/05/25 07:22:15;;;;;;;12.88;4.13;;;13.00;84.20;;;;;;5050706;28;20023;-74
2023/05/25 07:24:41;;;;;;;15.00;3.78;;;13.10;84.30;;;;;;5047873;28;20029;-74
2023/05/25 07:27:07;;;;;;;12.80;3.70;;;13.30;83.40;;;;;;5047864;28;20048;-74
2023/05/25 07:29:32;;;;;;;14.10;3.70;;;13.00;82.20;;;;;;5046885;28;20025;-74
2023/05/25 07:31:58;;;;;;;15.05;3.90;;;13.10;82.60;;;;;;5061679;28;20028;-74
2023/05/25 07:34:23;;;;;;;14.88;3.47;;;13.50;83.00;;;;;;5050187;28;20107;-74
2023/05/25 07:36:48;;;;;;;13.38;3.65;;;14.10;81.60;;;;;;5059079;28;20020;-74
2023/05/25 07:39:14;;;;;;;9.63;3.45;;;14.30;80.30;;;;;;5055585;28;20048;-74
2023/05/25 07:41:40;;;;;;;14.63;4.03;;;13.90;78.90;;;;;;5050707;28;20104;-74
2023/05/25 07:44:05;;;;;;;13.25;3.60;;;13.70;80.10;;;;;;5046855;28;20623;-74
2023/05/25 07:46:31;;;;;;;14.70;3.95;;;13.60;80.50;;;;;;5045715;28;20032;-74
2023/05/25 07:48:58;;;;;;;9.32;3.35;;;13.40;80.30;;;;;;5070125;28;20071;-74
2023/05/25 07:51:25;;;;;;;11.90;3.60;;;13.50;80.50;;;;;;5065514;28;20505;-74
2023/05/25 07:53:52;;;;;;;12.00;3.50;;;13.60;79.70;;;;;;5047664;28;20021;-74
2023/05/25 07:56:18;;;;;;;8.93;3.17;;;13.80;77.60;;;;;;5053896;28;20021;-74
2023/05/25 07:58:44;;;;;;;11.77;3.75;;;13.90;78.20;;;;;;5052569;28;20041;-74
2023/05/25 08:01:09;;;;;;;11.23;3.55;;;13.90;78.00;;;;;;5051032;28;20021;-74
2023/05/25 08:03:35;;;;;;;11.13;3.03;;;14.00;77.90;;;;;;5048087;28;20127;-74
2023/05/25 08:06:01;;;;;;;9.98;3.28;;;14.10;78.40;;;;;;5050511;28;20064;-74
2023/05/25 08:08:26;;;;;;;13.10;3.20;;;13.80;77.80;;;;;;5050331;28;20078;-74
2023/05/25 08:10:52;;;;;;;10.10;3.53;;;13.90;77.80;;;;;;5049029;28;20086;-74
2023/05/25 08:13:17;;;;;;;8.45;3.08;;;13.90;77.40;;;;;;5052251;28;20036;-74
2023/05/25 08:15:43;;;;;;;13.90;3.38;;;14.10;77.80;;;;;;5037828;28;20114;-74
2023/05/25 08:18:08;;;;;;;15.57;3.50;;;14.50;76.50;;;;;;5054527;28;20029;-74
2023/05/25 08:20:35;;;;;;;12.77;3.72;;;14.60;75.70;;;;;;5039814;28;20421;-74
2023/05/25 08:23:01;;;;;;;14.23;3.88;;;15.00;73.30;;;;;;5044514;28;20032;-74
2023/05/25 08:25:26;;;;;;;14.43;3.13;;;15.00;74.90;;;;;;5067457;28;20040;-74
2023/05/25 08:27:51;;;;;;;11.73;3.65;;;14.50;75.80;;;;;;5054750;28;20427;-74
2023/05/25 08:30:17;;;;;;;11.95;3.65;;;14.20;76.80;;;;;;5048766;28;20025;-74
2023/05/25 08:32:43;;;;;;;16.45;3.70;;;14.30;76.40;;;;;;5036353;28;20342;-74
2023/05/25 08:35:08;;;;;;;12.38;3.45;;;14.30;77.20;;;;;;5057616;28;20031;-74
2023/05/25 08:37:34;;;;;;;11.43;3.58;;;14.20;76.90;;;;;;5065309;28;20111;-74
2023/05/25 08:40:01;;;;;;;13.25;3.50;;;14.10;76.10;;;;;;5049643;28;20068;-74
2023/05/25 08:42:27;;;;;;;11.15;3.45;;;14.70;75.90;;;;;;5048318;28;20017;-74
2023/05/25 08:44:53;;;;;;;14.05;3.88;;;15.30;74.20;;;;;;5048580;28;20037;-74
2023/05/25 08:47:21;;;;;;;9.95;3.60;;;15.90;69.20;;;;;;5048625;28;20094;-74
2023/05/25 08:49:48;;;;;;;14.05;4.00;;;15.90;70.90;;;;;;5051614;28;20369;-74
2023/05/25 08:52:20;;;;;;;15.85;3.97;;;15.10;72.80;;;;;;5052252;28;20114;-74
2023/05/25 08:54:48;;;;;;;14.20;3.90;;;15.00;72.90;;;;;;5047328;28;20078;-75
2023/05/25 08:57:25;;;;;;;12.27;4.10;;;14.70;72.30;;;;;;5055928;28;20116;-74
2023/05/25 09:00:04;;;;;;;15.63;3.85;;;14.60;73.70;;;;;;5048458;28;20040;-74
2023/05/25 09:03:01;;;;;;;14.32;3.63;;;14.40;73.80;;;;;;5051814;28;20028;-74
2023/05/25 09:05:27;;;;;;;14.50;4.32;;;14.60;73.70;;;;;;5045686;28;20035;-74
2023/05/25 09:07:53;;;;;;;16.55;3.95;;;14.70;72.30;;;;;;5047372;28;20032;-74
2023/05/25 09:10:19;;;;;;;9.95;3.70;;;15.20;72.40;;;;;;5042915;28;20037;-74
2023/05/25 09:12:45;;;;;;;13.93;4.32;;;15.10;72.10;;;;;;5049524;28;20024;-74
2023/05/25 09:15:11;;;;;;;12.30;4.03;;;15.30;72.60;;;;;;5044278;28;20521;-74
2023/05/25 09:17:37;;;;;;;11.25;3.85;;;14.80;73.30;;;;;;5047015;28;20083;-75
2023/05/25 09:20:03;;;;;;;16.40;3.83;;;14.70;72.80;;;;;;5050515;28;20346;-74
2023/05/25 09:22:28;;;;;;;12.55;3.92;;;14.90;73.40;;;;;;5049003;28;20054;-75
2023/05/25 09:24:54;;;;;;;10.68;3.85;;;15.10;71.60;;;;;;5053207;28;20094;-75
2023/05/25 09:27:21;;;;;;;15.95;4.57;;;15.20;73.00;;;;;;5048419;28;20470;-74
2023/05/25 09:29:48;;;;;;;11.98;3.53;;;15.30;70.40;;;;;;5045839;28;20375;-74
2023/05/25 09:32:15;;;;;;;11.77;4.00;;;15.90;68.90;;;;;;5056013;28;20025;-75
2023/05/25 09:34:45;;;;;;;12.65;4.00;;;16.10;68.80;;;;;;5044068;28;20583;-74
2023/05/25 09:37:12;;;;;;;13.65;4.25;;;16.40;67.90;;;;;;5059993;28;20533;-74
2023/05/25 09:39:42;;;;;;;14.48;4.43;;;16.00;68.10;;;;;;5048249;28;20036;-74
2023/05/25 09:42:08;;;;;;;13.75;4.78;;;15.80;68.90;;;;;;5064950;28;20047;-75
2023/05/25 09:44:34;;;;;;;11.60;4.10;;;15.40;70.40;;;;;;5057007;28;20134;-74
2023/05/25 09:47:00;;;;;;;13.88;4.68;;;15.80;68.90;;;;;;5043216;28;20442;-74
2023/05/25 09:49:25;;;;;;;13.68;4.82;;;16.00;67.30;;;;;;5041481;28;20365;-74
2023/05/25 09:51:51;;;;;;;15.82;4.72;;;16.30;65.80;;;;;;5047713;28;20051;-74
2023/05/25 09:54:17;;;;;;;15.02;4.18;;;17.00;65.80;;;;;;5059474;28;20025;-75
2023/05/25 09:56:43;;;;;;;13.32;4.32;;;17.10;63.00;;;;;;5047465;28;20370;-75
2023/05/25 09:59:10;;;;;;;13.20;4.28;;;17.20;64.10;;;;;;5050912;28;20466;-75
2023/05/25 10:01:36;;;;;;;15.70;4.25;;;17.00;63.30;;;;;;5049526;28;20025;-75
2023/05/25 10:04:01;;;;;;;14.43;3.85;;;17.50;64.40;;;;;;5049583;28;20048;-75
2023/05/25 10:06:27;;;;;;;14.55;3.88;;;17.10;61.60;;;;;;5060536;28;20032;-74
2023/05/25 10:08:55;;;;;;;17.52;4.60;;;16.90;63.10;;;;;;5042159;28;20037;-75
2023/05/25 10:11:25;;;;;;;16.40;4.72;;;17.40;61.90;;;;;;5053194;28;20039;-75
2023/05/25 10:13:52;;;;;;;15.40;4.45;;;17.30;63.10;;;;;;5053004;28;20081;-74
2023/05/25 10:16:23;;;;;;;15.77;4.20;;;16.90;62.10;;;;;;5040848;28;20032;-75
2023/05/25 10:19:11;;;;;;;13.52;3.55;;;17.50;61.40;;;;;;5049933;28;20040;-74
2023/05/25 10:21:38;;;;;;;17.25;4.18;;;17.80;60.20;;;;;;5044379;28;20021;-75
2023/05/25 10:24:08;;;;;;;15.55;4.45;;;17.80;58.80;;;;;;5048129;28;20025;-75
2023/05/25 10:26:38;;;;;;;20.52;4.53;;;17.80;58.40;;;;;;5042862;28;20136;-75
2023/05/25 10:29:06;;;;;;;17.03;4.10;;;18.50;57.40;;;;;;5044262;28;20025;-75
2023/05/25 10:31:36;;;;;;;16.80;4.15;;;18.70;56.10;;;;;;5061173;28;20348;-75
2023/05/25 10:34:02;;;;;;;13.30;3.90;;;19.30;54.10;;;;;;5063963;28;20032;-75
2023/05/25 10:36:29;;;;;;;14.25;4.75;;;19.10;54.70;;;;;;5056390;28;20029;-75
2023/05/25 10:38:55;;;;;;;18.05;4.20;;;18.50;55.10;;;;;;5043187;28;20066;-75
2023/05/25 10:41:21;;;;;;;16.15;4.45;;;18.50;58.30;;;;;;5047101;28;20040;-75
2023/05/25 10:43:48;;;;;;;17.30;4.13;;;18.70;55.90;;;;;;5038651;28;20488;-75
2023/05/25 10:46:14;;;;;;;17.35;4.60;;;18.80;56.60;;;;;;5044767;28;20028;-75
2023/05/25 10:48:46;;;;;;;12.45;3.45;;;19.00;58.00;;;;;;5061859;28;20092;-75
2023/05/25 10:51:13;;;;;;;15.38;4.20;;;18.90;56.40;;;;;;5049870;28;20503;-75
2023/05/25 10:53:43;;;;;;;14.25;4.32;;;18.60;55.80;;;;;;5051004;28;20050;-75
2023/05/25 10:56:10;;;;;;;12.75;3.88;;;19.40;54.90;;;;;;5051789;28;20032;-75
2023/05/25 10:58:41;;;;;;;15.38;3.97;;;19.50;55.60;;;;;;5050263;28;20072;-75
2023/05/25 11:01:12;;;;;;;13.52;4.05;;;19.40;53.80;;;;;;5054852;28;20113;-75
2023/05/25 11:03:43;;;;;;;;;;;19.10;54.80;;;;;;5048091;28;20033;-75
2023/05/25 11:06:44;;;;;;;12.43;3.97;;;19.80;55.40;;;;;;5049881;28;19905;-75
2023/05/25 11:09:32;;;;;;;15.88;4.03;;;19.40;54.60;;;;;;5032476;28;20037;-75
2023/05/25 11:11:58;;;;;;;14.95;4.00;;;19.30;55.50;;;;;;5052811;28;20366;-75
2023/05/25 11:14:30;;;;;;;15.23;4.68;;;19.40;54.60;;;;;;5053908;28;20461;-75
2023/05/25 11:17:17;;;;;;;12.63;4.10;;;19.40;54.10;;;;;;5050568;28;20683;-75
2023/05/25 11:19:48;;;;;;;16.67;4.60;;;19.40;55.20;;;;;;5046099;28;20048;-75
2023/05/25 11:22:43;;;;;;;13.38;4.50;;;19.30;53.30;;;;;;5049653;28;20419;-75
2023/05/25 11:25:35;;;;;;;18.75;4.80;;;19.30;54.20;;;;;;5035302;28;20056;-75
2023/05/25 11:28:05;;;;;;;15.40;4.15;;;19.60;54.30;;;;;;5044029;28;20082;-75
2023/05/25 11:30:31;;;;;;;;;;;19.80;53.60;;;;;;5053867;28;20379;-75
2023/05/25 11:33:01;;;;;;;14.48;4.40;;;19.60;53.30;;;;;;5044296;28;19950;-75
2023/05/25 11:35:27;;;;;;;13.98;4.13;;;19.80;53.70;;;;;;5052628;28;20033;-75
2023/05/25 11:37:53;;;;;;;13.65;4.10;;;20.50;51.60;;;;;;5051244;28;20021;-75
2023/05/25 11:40:21;;;;;;;15.13;4.85;;;20.80;51.00;;;;;;5052339;28;20463;-75
2023/05/25 11:42:48;;;;;;;17.88;4.35;;;20.60;50.60;;;;;;5053695;28;20100;-75
2023/05/25 11:45:14;;;;;;;16.63;4.40;;;21.00;49.70;;;;;;5052347;28;20029;-75
2023/05/25 11:47:40;;;;;;;14.35;4.47;;;20.40;51.90;;;;;;5053811;28;20025;-75
2023/05/25 11:50:06;;;;;;;18.45;4.35;;;19.90;51.90;;;;;;5049093;28;20551;-75
2023/05/25 11:52:31;;;;;;;16.40;4.90;;;19.90;51.90;;;;;;5048644;28;20100;-75
2023/05/25 11:54:57;;;;;;;16.50;4.88;;;19.60;51.70;;;;;;5056720;28;20029;-75
2023/05/25 11:57:24;;;;;;;18.02;5.20;;;20.70;53.90;;;;;;5049283;28;20057;-75
2023/05/25 11:59:53;;;;;;;12.95;4.25;;;20.60;52.10;;;;;;5050956;28;20116;-75
2023/05/25 12:02:20;;;;;;;21.02;5.35;;;20.00;50.50;;;;;;5053249;28;20021;-75
2023/05/25 12:05:00;;;;;;;20.95;5.78;;;19.60;52.70;;;;;;5044771;28;20033;-75
2023/05/25 12:07:27;;;;;;;19.45;5.13;;;19.40;54.60;;;;;;5045950;28;20064;-75
2023/05/25 12:10:12;;;;;;;18.50;4.45;;;19.10;54.20;;;;;;5051225;28;20025;-75
2023/05/25 12:12:44;;;;;;;17.00;5.20;;;20.00;54.30;;;;;;5052456;28;20029;-75
2023/05/25 12:15:12;;;;;;;18.95;4.57;;;19.90;54.90;;;;;;5048210;28;20413;-75
2023/05/25 12:17:41;;;;;;;18.75;4.32;;;19.80;54.20;;;;;;5050216;28;20079;-75
2023/05/25 12:20:08;;;;;;;18.63;5.18;;;19.10;52.20;;;;;;5049883;28;20343;-75
2023/05/25 12:22:34;;;;;;;18.35;5.55;;;18.90;50.80;;;;;;5047353;28;20044;-74
2023/05/25 12:25:00;;;;;;;16.45;4.50;;;19.70;50.10;;;;;;5051315;28;20029;-75
2023/05/25 12:27:25;;;;;;;20.42;4.82;;;20.60;49.80;;;;;;5043012;28;20065;-75
2023/05/25 12:29:52;;;;;;;16.67;4.00;;;20.60;50.20;;;;;;5049814;28;20040;-75
2023/05/25 12:32:17;;;;;;;17.73;4.70;;;20.90;49.30;;;;;;5050276;28;20057;-75
2023/05/25 12:34:43;;;;;;;16.73;4.68;;;21.00;50.10;;;;;;5058465;28;20082;-75
2023/05/25 12:37:20;;;;;;;22.67;4.45;;;20.20;48.00;;;;;;5062842;28;20036;-75
2023/05/25 12:39:46;;;;;;;16.80;4.65;;;20.00;50.00;;;;;;5051039;28;20033;-74